sensor_id;sensor_type;location;lat;lon;timestamp;pressure;altitude;pressure_sealevel;temperature;humidity
32456;BME280;18912;43.270;27.942;2023-02-18T00:01:11;98589.63;;;11.95;43.25
32456;BME280;18912;43.270;27.942;2023-02-18T00:03:38;98582.41;;;12.15;43.05
32456;BME280;18912;43.270;27.942;2023-02-18T00:06:33;98572.13;;;11.98;43.19
32456;BME280;18912;43.270;27.942;2023-02-18T00:09:00;98572.94;;;11.92;43.20
32456;BME280;18912;43.270;27.942;2023-02-18T00:11:27;98564.63;;;12.06;42.87
32456;BME280;18912;43.270;27.942;2023-02-18T00:13:55;98571.88;;;11.80;43.45
32456;BME280;18912;43.270;27.942;2023-02-18T00:16:23;98564.63;;;12.06;43.02
32456;BME280;18912;43.270;27.942;2023-02-18T00:18:49;98569.03;;;12.14;42.88
32456;BME280;18912;43.270;27.942;2023-02-18T00:21:14;98560.91;;;12.27;42.43
32456;BME280;18912;43.270;27.942;2023-02-18T00:23:40;98560.66;;;11.96;42.96
32456;BME280;18912;43.270;27.942;2023-02-18T00:26:11;98553.41;;;12.23;42.64
32456;BME280;18912;43.270;27.942;2023-02-18T00:28:37;98547.97;;;12.03;42.67
32456;BME280;18912;43.270;27.942;2023-02-18T00:31:08;98548.16;;;11.95;42.86
32456;BME280;18912;43.270;27.942;2023-02-18T00:33:34;98537.13;;;11.96;42.87
32456;BME280;18912;43.270;27.942;2023-02-18T00:36:05;98537.06;;;11.77;43.19
32456;BME280;18912;43.270;27.942;2023-02-18T00:38:31;98526.94;;;12.11;42.58
32456;BME280;18912;43.270;27.942;2023-02-18T00:40:57;98529.22;;;12.28;42.39
32456;BME280;18912;43.270;27.942;2023-02-18T00:43:23;98521.28;;;12.06;42.65
32456;BME280;18912;43.270;27.942;2023-02-18T00:45:48;98522.13;;;12.00;43.03
32456;BME280;18912;43.270;27.942;2023-02-18T00:48:14;98523.09;;;11.80;43.31
32456;BME280;18912;43.270;27.942;2023-02-18T00:50:39;98513.78;;;11.95;42.76
32456;BME280;18912;43.270;27.942;2023-02-18T00:53:05;98510.44;;;12.06;42.54
32456;BME280;18912;43.270;27.942;2023-02-18T00:55:30;98503.53;;;11.84;43.09
32456;BME280;18912;43.270;27.942;2023-02-18T00:57:55;98500.88;;;11.91;42.80
32456;BME280;18912;43.270;27.942;2023-02-18T01:00:21;98497.69;;;11.68;43.03
32456;BME280;18912;43.270;27.942;2023-02-18T01:02:47;98491.97;;;11.50;43.64
32456;BME280;18912;43.270;27.942;2023-02-18T01:05:12;98487.72;;;11.88;42.83
32456;BME280;18912;43.270;27.942;2023-02-18T01:07:38;98484.16;;;11.68;43.38
32456;BME280;18912;43.270;27.942;2023-02-18T01:10:04;98481.25;;;11.95;43.00
32456;BME280;18912;43.270;27.942;2023-02-18T01:12:29;98486.03;;;11.74;43.22
32456;BME280;18912;43.270;27.942;2023-02-18T01:14:55;98479.47;;;11.49;43.87
32456;BME280;18912;43.270;27.942;2023-02-18T01:17:20;98486.59;;;11.63;43.33
32456;BME280;18912;43.270;27.942;2023-02-18T01:19:46;98485.25;;;11.32;43.67
32456;BME280;18912;43.270;27.942;2023-02-18T01:22:11;98481.13;;;11.50;43.76
32456;BME280;18912;43.270;27.942;2023-02-18T01:24:37;98483.63;;;11.51;43.38
32456;BME280;18912;43.270;27.942;2023-02-18T01:27:03;98479.97;;;11.65;43.39
32456;BME280;18912;43.270;27.942;2023-02-18T01:29:28;98471.56;;;11.54;43.49
32456;BME280;18912;43.270;27.942;2023-02-18T01:31:54;98479.47;;;11.49;43.64
32456;BME280;18912;43.270;27.942;2023-02-18T01:34:19;98477.00;;;11.60;43.44
32456;BME280;18912;43.270;27.942;2023-02-18T01:36:45;98471.25;;;11.70;43.29
32456;BME280;18912;43.270;27.942;2023-02-18T01:39:10;98481.84;;;11.78;43.16
32456;BME280;18912;43.270;27.942;2023-02-18T01:41:36;98467.59;;;11.50;43.60
32456;BME280;18912;43.270;27.942;2023-02-18T01:44:22;98486.59;;;11.56;43.50
32456;BME280;18912;43.270;27.942;2023-02-18T01:46:48;98477.63;;;11.56;43.51
32456;BME280;18912;43.270;27.942;2023-02-18T01:49:18;98480.00;;;11.85;43.00
32456;BME280;18912;43.270;27.942;2023-02-18T01:51:54;98471.03;;;11.71;43.14
32456;BME280;18912;43.270;27.942;2023-02-18T01:54:28;98468.94;;;11.73;43.18
32456;BME280;18912;43.270;27.942;2023-02-18T02:02:29;98438.25;;;11.53;43.54
32456;BME280;18912;43.270;27.942;2023-02-18T02:04:56;98441.59;;;11.49;43.77
32456;BME280;18912;43.270;27.942;2023-02-18T02:07:23;98432.84;;;11.47;43.45
32456;BME280;18912;43.270;27.942;2023-02-18T02:09:52;98429.97;;;11.74;43.01
32456;BME280;18912;43.270;27.942;2023-02-18T02:17:53;98433.94;;;11.78;43.12
32456;BME280;18912;43.270;27.942;2023-02-18T02:28:56;98447.72;;;11.83;43.02
32456;BME280;18912;43.270;27.942;2023-02-18T02:39:38;98426.66;;;11.85;42.59
32456;BME280;18912;43.270;27.942;2023-02-18T02:52:33;98436.47;;;12.06;42.31
32456;BME280;18912;43.270;27.942;2023-02-18T02:55:07;98425.34;;;12.47;41.42
32456;BME280;18912;43.270;27.942;2023-02-18T03:00:05;98425.41;;;12.97;40.67
32456;BME280;18912;43.270;27.942;2023-02-18T03:08:16;98417.19;;;12.60;41.44
32456;BME280;18912;43.270;27.942;2023-02-18T03:18:37;98397.91;;;12.87;41.14
32456;BME280;18912;43.270;27.942;2023-02-18T03:24:12;98400.56;;;12.50;41.74
32456;BME280;18912;43.270;27.942;2023-02-18T03:26:45;98389.13;;;12.35;41.98
32456;BME280;18912;43.270;27.942;2023-02-18T03:29:13;98389.72;;;12.43;41.90
32456;BME280;18912;43.270;27.942;2023-02-18T03:31:42;98390.78;;;12.36;42.08
32456;BME280;18912;43.270;27.942;2023-02-18T03:34:15;98383.53;;;12.80;41.46
32456;BME280;18912;43.270;27.942;2023-02-18T03:36:42;98375.72;;;12.59;41.67
32456;BME280;18912;43.270;27.942;2023-02-18T03:39:13;98379.47;;;12.52;41.68
32456;BME280;18912;43.270;27.942;2023-02-18T03:41:39;98365.59;;;12.79;41.46
32456;BME280;18912;43.270;27.942;2023-02-18T03:44:07;98368.75;;;12.70;41.47
32456;BME280;18912;43.270;27.942;2023-02-18T03:46:34;98367.75;;;12.64;41.49
32456;BME280;18912;43.270;27.942;2023-02-18T03:49:01;98377.25;;;12.86;41.18
32456;BME280;18912;43.270;27.942;2023-02-18T03:51:27;98377.19;;;12.99;41.13
32456;BME280;18912;43.270;27.942;2023-02-18T03:53:52;98375.94;;;13.08;40.69
32456;BME280;18912;43.270;27.942;2023-02-18T03:56:18;98376.72;;;13.16;40.54
32456;BME280;18912;43.270;27.942;2023-02-18T03:58:44;98377.41;;;13.04;40.65
32456;BME280;18912;43.270;27.942;2023-02-18T04:01:09;98376.44;;;12.86;40.85
32456;BME280;18912;43.270;27.942;2023-02-18T04:03:35;98372.59;;;13.00;40.67
32456;BME280;18912;43.270;27.942;2023-02-18T04:06:01;98370.94;;;13.05;40.22
32456;BME280;18912;43.270;27.942;2023-02-18T04:08:26;98374.47;;;13.13;40.19
32456;BME280;18912;43.270;27.942;2023-02-18T04:10:52;98372.09;;;13.23;39.89
32456;BME280;18912;43.270;27.942;2023-02-18T04:13:17;98377.81;;;13.01;40.16
32456;BME280;18912;43.270;27.942;2023-02-18T04:15:44;98371.44;;;13.27;39.60
32456;BME280;18912;43.270;27.942;2023-02-18T04:18:09;98366.03;;;13.21;39.32
32456;BME280;18912;43.270;27.942;2023-02-18T04:20:35;98375.31;;;13.44;39.21
32456;BME280;18912;43.270;27.942;2023-02-18T04:23:02;98368.88;;;13.39;39.06
32456;BME280;18912;43.270;27.942;2023-02-18T04:25:27;98365.88;;;13.16;39.09
32456;BME280;18912;43.270;27.942;2023-02-18T04:27:53;98365.53;;;13.37;39.09
32456;BME280;18912;43.270;27.942;2023-02-18T04:30:18;98355.97;;;13.59;38.33
32456;BME280;18912;43.270;27.942;2023-02-18T04:32:43;98369.81;;;13.51;38.48
32456;BME280;18912;43.270;27.942;2023-02-18T04:35:09;98350.88;;;13.69;38.20
32456;BME280;18912;43.270;27.942;2023-02-18T04:37:34;98349.50;;;13.60;38.15
32456;BME280;18912;43.270;27.942;2023-02-18T04:40:00;98348.78;;;13.71;38.14
32456;BME280;18912;43.270;27.942;2023-02-18T04:42:25;98345.28;;;13.64;38.42
32456;BME280;18912;43.270;27.942;2023-02-18T04:44:51;98356.31;;;13.69;38.60
32456;BME280;18912;43.270;27.942;2023-02-18T04:47:16;98341.75;;;13.88;38.22
32456;BME280;18912;43.270;27.942;2023-02-18T04:49:42;98343.13;;;13.41;38.76
32456;BME280;18912;43.270;27.942;2023-02-18T04:52:07;98326.47;;;13.38;38.67
32456;BME280;18912;43.270;27.942;2023-02-18T04:54:33;98319.91;;;13.21;38.48
32456;BME280;18912;43.270;27.942;2023-02-18T04:56:58;98327.06;;;13.40;38.49
32456;BME280;18912;43.270;27.942;2023-02-18T04:59:24;98325.97;;;13.72;37.87
32456;BME280;18912;43.270;27.942;2023-02-18T05:01:49;98333.63;;;13.57;38.19
32456;BME280;18912;43.270;27.942;2023-02-18T05:04:15;98323.94;;;13.43;38.11
32456;BME280;18912;43.270;27.942;2023-02-18T05:06:42;98308.88;;;13.47;38.31
32456;BME280;18912;43.270;27.942;2023-02-18T05:09:08;98320.41;;;13.67;37.60
32456;BME280;18912;43.270;27.942;2023-02-18T05:11:33;98325.56;;;13.75;37.77
32456;BME280;18912;43.270;27.942;2023-02-18T05:13:58;98324.59;;;13.63;37.96
32456;BME280;18912;43.270;27.942;2023-02-18T05:16:24;98327.69;;;13.42;38.05
32456;BME280;18912;43.270;27.942;2023-02-18T05:18:50;98323.72;;;13.69;37.73
32456;BME280;18912;43.270;27.942;2023-02-18T05:21:15;98334.69;;;13.56;38.00
32456;BME280;18912;43.270;27.942;2023-02-18T05:23:41;98338.34;;;13.68;37.90
32456;BME280;18912;43.270;27.942;2023-02-18T05:26:06;98330.31;;;13.55;37.95
32456;BME280;18912;43.270;27.942;2023-02-18T05:28:32;98333.97;;;13.67;37.74
32456;BME280;18912;43.270;27.942;2023-02-18T05:30:57;98337.72;;;13.90;37.49
32456;BME280;18912;43.270;27.942;2023-02-18T05:33:23;98347.56;;;13.67;37.64
32456;BME280;18912;43.270;27.942;2023-02-18T05:35:48;98348.44;;;13.61;37.99
32456;BME280;18912;43.270;27.942;2023-02-18T05:38:14;98350.19;;;13.49;37.97
32456;BME280;18912;43.270;27.942;2023-02-18T05:40:40;98350.03;;;13.93;37.60
32456;BME280;18912;43.270;27.942;2023-02-18T05:43:05;98338.34;;;13.68;37.64
32456;BME280;18912;43.270;27.942;2023-02-18T05:45:31;98350.88;;;13.69;37.72
32456;BME280;18912;43.270;27.942;2023-02-18T05:47:56;98348.59;;;13.90;37.47
32456;BME280;18912;43.270;27.942;2023-02-18T05:50:22;98348.66;;;13.84;37.57
32456;BME280;18912;43.270;27.942;2023-02-18T05:52:47;98346.78;;;14.09;37.47
32456;BME280;18912;43.270;27.942;2023-02-18T05:55:13;98351.09;;;14.17;37.12
32456;BME280;18912;43.270;27.942;2023-02-18T05:57:39;98352.41;;;13.83;37.44
32456;BME280;18912;43.270;27.942;2023-02-18T06:00:05;98340.50;;;14.08;37.33
32456;BME280;18912;43.270;27.942;2023-02-18T06:02:33;98335.97;;;13.78;37.50
32456;BME280;18912;43.270;27.942;2023-02-18T06:04:58;98330.84;;;14.13;37.11
32456;BME280;18912;43.270;27.942;2023-02-18T06:07:24;98336.13;;;13.83;37.27
32456;BME280;18912;43.270;27.942;2023-02-18T06:09:49;98341.19;;;14.22;36.80
32456;BME280;18912;43.270;27.942;2023-02-18T06:12:15;98341.91;;;13.93;37.25
32456;BME280;18912;43.270;27.942;2023-02-18T06:14:40;98341.47;;;13.96;37.24
32456;BME280;18912;43.270;27.942;2023-02-18T06:17:08;98343.69;;;14.24;36.94
32456;BME280;18912;43.270;27.942;2023-02-18T06:19:34;98340.94;;;14.48;36.57
32456;BME280;18912;43.270;27.942;2023-02-18T06:21:59;98328.28;;;14.18;36.54
32456;BME280;18912;43.270;27.942;2023-02-18T06:24:25;98330.06;;;14.30;36.71
32456;BME280;18912;43.270;27.942;2023-02-18T06:26:50;98332.56;;;14.32;36.59
32456;BME280;18912;43.270;27.942;2023-02-18T06:29:16;98323.63;;;14.43;36.44
32456;BME280;18912;43.270;27.942;2023-02-18T06:31:41;98332.19;;;14.46;36.26
32456;BME280;18912;43.270;27.942;2023-02-18T06:34:07;98316.50;;;14.24;36.29
32456;BME280;18912;43.270;27.942;2023-02-18T06:36:32;98315.69;;;14.59;36.17
32456;BME280;18912;43.270;27.942;2023-02-18T06:38:58;98313.75;;;14.66;35.75
32456;BME280;18912;43.270;27.942;2023-02-18T06:41:23;98317.66;;;14.70;35.70
32456;BME280;18912;43.270;27.942;2023-02-18T06:43:50;98307.25;;;14.49;35.77
32456;BME280;18912;43.270;27.942;2023-02-18T06:46:15;98314.31;;;14.68;35.51
32456;BME280;18912;43.270;27.942;2023-02-18T06:48:40;98319.31;;;14.71;35.29
32456;BME280;18912;43.270;27.942;2023-02-18T06:51:06;98320.59;;;14.69;35.43
32456;BME280;18912;43.270;27.942;2023-02-18T06:53:31;98324.88;;;14.94;35.00
32456;BME280;18912;43.270;27.942;2023-02-18T06:55:57;98313.78;;;14.78;35.45
32456;BME280;18912;43.270;27.942;2023-02-18T06:58:22;98313.53;;;14.97;35.08
32456;BME280;18912;43.270;27.942;2023-02-18T07:00:48;98327.91;;;15.16;34.85
32456;BME280;18912;43.270;27.942;2023-02-18T07:03:14;98323.31;;;15.17;34.64
32456;BME280;18912;43.270;27.942;2023-02-18T07:05:40;98327.72;;;15.18;34.64
32456;BME280;18912;43.270;27.942;2023-02-18T07:08:06;98324.78;;;15.31;34.28
32456;BME280;18912;43.270;27.942;2023-02-18T07:10:32;98317.53;;;15.25;34.32
32456;BME280;18912;43.270;27.942;2023-02-18T07:12:57;98320.53;;;15.35;34.36
32456;BME280;18912;43.270;27.942;2023-02-18T07:15:23;98321.31;;;15.42;34.31
32456;BME280;18912;43.270;27.942;2023-02-18T07:17:51;98326.41;;;15.50;34.10
32456;BME280;18912;43.270;27.942;2023-02-18T07:20:17;98311.88;;;15.79;33.65
32456;BME280;18912;43.270;27.942;2023-02-18T07:22:43;98314.13;;;15.59;33.79
32456;BME280;18912;43.270;27.942;2023-02-18T07:25:09;98317.16;;;15.51;33.92
32456;BME280;18912;43.270;27.942;2023-02-18T07:27:34;98309.03;;;15.74;33.56
32456;BME280;18912;43.270;27.942;2023-02-18T07:30:00;98317.28;;;15.56;33.67
32456;BME280;18912;43.270;27.942;2023-02-18T07:32:25;98303.22;;;15.59;33.70
32456;BME280;18912;43.270;27.942;2023-02-18T07:34:51;98318.84;;;15.75;33.59
32456;BME280;18912;43.270;27.942;2023-02-18T07:37:20;98316.41;;;15.85;33.45
32456;BME280;18912;43.270;27.942;2023-02-18T07:39:46;98316.88;;;15.94;33.48
32456;BME280;18912;43.270;27.942;2023-02-18T07:42:12;98323.50;;;15.74;33.42
32456;BME280;18912;43.270;27.942;2023-02-18T07:44:39;98321.38;;;16.23;33.58
32456;BME280;18912;43.270;27.942;2023-02-18T07:47:06;98309.28;;;16.30;33.91
32456;BME280;18912;43.270;27.942;2023-02-18T07:49:33;98302.63;;;16.26;33.90
32456;BME280;18912;43.270;27.942;2023-02-18T07:51:59;98303.47;;;16.04;34.28
32456;BME280;18912;43.270;27.942;2023-02-18T07:54:25;98308.94;;;16.04;34.02
32456;BME280;18912;43.270;27.942;2023-02-18T07:56:51;98296.63;;;16.01;34.08
32456;BME280;18912;43.270;27.942;2023-02-18T07:59:16;98295.03;;;16.17;34.19
32456;BME280;18912;43.270;27.942;2023-02-18T08:01:42;98304.56;;;16.14;34.21
32456;BME280;18912;43.270;27.942;2023-02-18T08:04:08;98303.66;;;16.71;33.77
32456;BME280;18912;43.270;27.942;2023-02-18T08:06:38;98296.13;;;16.50;33.97
32456;BME280;18912;43.270;27.942;2023-02-18T08:09:04;98294.56;;;16.54;33.92
32456;BME280;18912;43.270;27.942;2023-02-18T08:11:30;98276.13;;;16.73;33.12
32456;BME280;18912;43.270;27.942;2023-02-18T08:13:55;98276.88;;;16.85;32.58
32456;BME280;18912;43.270;27.942;2023-02-18T08:16:21;98280.50;;;16.74;32.75
32456;BME280;18912;43.270;27.942;2023-02-18T08:18:48;98283.94;;;16.81;32.40
32456;BME280;18912;43.270;27.942;2023-02-18T08:21:15;98289.94;;;17.23;31.82
32456;BME280;18912;43.270;27.942;2023-02-18T08:23:41;98283.63;;;17.22;32.19
32456;BME280;18912;43.270;27.942;2023-02-18T08:26:07;98285.00;;;17.08;32.36
32456;BME280;18912;43.270;27.942;2023-02-18T08:28:33;98281.72;;;16.55;32.91
32456;BME280;18912;43.270;27.942;2023-02-18T08:30:58;98275.56;;;17.16;32.54
32456;BME280;18912;43.270;27.942;2023-02-18T08:33:24;98269.41;;;17.37;32.44
32456;BME280;18912;43.270;27.942;2023-02-18T08:35:51;98273.69;;;17.33;31.78
32456;BME280;18912;43.270;27.942;2023-02-18T08:38:18;98274.47;;;17.45;31.84
32456;BME280;18912;43.270;27.942;2023-02-18T08:40:44;98282.81;;;17.38;32.00
32456;BME280;18912;43.270;27.942;2023-02-18T08:43:10;98281.22;;;17.26;32.01
32456;BME280;18912;43.270;27.942;2023-02-18T08:45:37;98266.25;;;17.28;32.66
32456;BME280;18912;43.270;27.942;2023-02-18T08:48:04;98278.31;;;17.16;32.11
32456;BME280;18912;43.270;27.942;2023-02-18T08:50:29;98265.09;;;17.41;32.09
32456;BME280;18912;43.270;27.942;2023-02-18T08:52:55;98265.69;;;17.26;32.20
32456;BME280;18912;43.270;27.942;2023-02-18T08:55:21;98262.91;;;17.71;32.19
32456;BME280;18912;43.270;27.942;2023-02-18T08:57:47;98256.97;;;17.74;32.16
32456;BME280;18912;43.270;27.942;2023-02-18T09:00:16;98249.41;;;17.81;32.21
32456;BME280;18912;43.270;27.942;2023-02-18T09:02:42;98258.63;;;17.58;32.38
32456;BME280;18912;43.270;27.942;2023-02-18T09:05:08;98260.25;;;17.76;32.58
32456;BME280;18912;43.270;27.942;2023-02-18T09:07:35;98258.44;;;17.65;32.44
32456;BME280;18912;43.270;27.942;2023-02-18T09:10:01;98257.31;;;17.99;32.12
32456;BME280;18912;43.270;27.942;2023-02-18T09:12:27;98257.31;;;17.99;31.87
32456;BME280;18912;43.270;27.942;2023-02-18T09:14:53;98259.47;;;18.35;31.68
32456;BME280;18912;43.270;27.942;2023-02-18T09:17:18;98259.81;;;18.39;31.63
32456;BME280;18912;43.270;27.942;2023-02-18T09:19:44;98253.66;;;18.48;32.15
32456;BME280;18912;43.270;27.942;2023-02-18T09:22:09;98251.00;;;18.15;32.22
32456;BME280;18912;43.270;27.942;2023-02-18T09:24:39;98246.47;;;18.04;32.15
32456;BME280;18912;43.270;27.942;2023-02-18T09:27:05;98237.38;;;18.20;31.81
32456;BME280;18912;43.270;27.942;2023-02-18T09:29:31;98239.41;;;18.46;31.67
32456;BME280;18912;43.270;27.942;2023-02-18T09:32:01;98235.03;;;18.07;32.14
32456;BME280;18912;43.270;27.942;2023-02-18T09:34:27;98223.72;;;18.20;31.94
32456;BME280;18912;43.270;27.942;2023-02-18T09:36:53;98234.16;;;18.23;31.78
32456;BME280;18912;43.270;27.942;2023-02-18T09:39:19;98232.19;;;18.19;32.04
32456;BME280;18912;43.270;27.942;2023-02-18T09:41:46;98229.59;;;18.12;32.46
32456;BME280;18912;43.270;27.942;2023-02-18T09:44:14;98224.91;;;18.29;32.28
32456;BME280;18912;43.270;27.942;2023-02-18T09:49:24;98218.13;;;18.10;32.26
32456;BME280;18912;43.270;27.942;2023-02-18T09:51:52;98215.34;;;17.55;32.44
32456;BME280;18912;43.270;27.942;2023-02-18T09:54:19;98209.38;;;17.75;32.54
32456;BME280;18912;43.270;27.942;2023-02-18T09:56:45;98213.50;;;17.94;32.33
32456;BME280;18912;43.270;27.942;2023-02-18T09:59:16;98200.78;;;17.83;32.69
32456;BME280;18912;43.270;27.942;2023-02-18T10:01:43;98200.94;;;17.43;32.61
32456;BME280;18912;43.270;27.942;2023-02-18T10:04:24;98206.97;;;17.29;32.98
32456;BME280;18912;43.270;27.942;2023-02-18T10:06:52;98205.06;;;17.46;32.97
32456;BME280;18912;43.270;27.942;2023-02-18T10:09:26;98210.34;;;17.86;32.84
32456;BME280;18912;43.270;27.942;2023-02-18T10:11:59;98197.47;;;17.48;32.99
32456;BME280;18912;43.270;27.942;2023-02-18T10:14:27;98209.66;;;17.57;33.19
32456;BME280;18912;43.270;27.942;2023-02-18T10:16:54;98205.44;;;17.66;32.98
32456;BME280;18912;43.270;27.942;2023-02-18T10:19:29;98194.97;;;17.63;33.05
32456;BME280;18912;43.270;27.942;2023-02-18T10:21:56;98190.13;;;17.48;33.23
32456;BME280;18912;43.270;27.942;2023-02-18T10:24:43;98204.19;;;17.95;32.95
32456;BME280;18912;43.270;27.942;2023-02-18T10:27:17;98196.94;;;17.84;33.21
32456;BME280;18912;43.270;27.942;2023-02-18T10:29:45;98201.72;;;17.94;33.43
32456;BME280;18912;43.270;27.942;2023-02-18T10:32:21;98194.31;;;17.72;33.38
32456;BME280;18912;43.270;27.942;2023-02-18T10:35:16;98199.53;;;18.12;33.06
32456;BME280;18912;43.270;27.942;2023-02-18T10:40:57;98196.19;;;18.48;32.65
32456;BME280;18912;43.270;27.942;2023-02-18T10:43:48;98197.69;;;18.39;32.96
32456;BME280;18912;43.270;27.942;2023-02-18T10:49:51;98203.50;;;18.64;32.94
32456;BME280;18912;43.270;27.942;2023-02-18T10:52:19;98184.34;;;18.21;33.38
32456;BME280;18912;43.270;27.942;2023-02-18T10:55:05;98178.22;;;17.93;34.47
32456;BME280;18912;43.270;27.942;2023-02-18T10:57:32;98172.44;;;18.32;34.26
32456;BME280;18912;43.270;27.942;2023-02-18T11:02:26;98166.00;;;18.65;34.79
32456;BME280;18912;43.270;27.942;2023-02-18T11:04:54;98165.78;;;18.72;34.74
32456;BME280;18912;43.270;27.942;2023-02-18T11:07:24;98153.19;;;18.97;35.18
32456;BME280;18912;43.270;27.942;2023-02-18T11:09:59;98160.00;;;18.68;35.10
32456;BME280;18912;43.270;27.942;2023-02-18T11:12:45;98156.38;;;19.16;34.57
32456;BME280;18912;43.270;27.942;2023-02-18T11:17:42;98166.03;;;19.23;34.93
32456;BME280;18912;43.270;27.942;2023-02-18T11:22:56;98159.16;;;19.52;34.44
32456;BME280;18912;43.270;27.942;2023-02-18T11:25:25;98159.50;;;19.66;34.79
32456;BME280;18912;43.270;27.942;2023-02-18T11:27:55;98156.94;;;19.91;34.14
32456;BME280;18912;43.270;27.942;2023-02-18T11:30:37;98171.22;;;19.93;33.93
32456;BME280;18912;43.270;27.942;2023-02-18T11:33:08;98160.59;;;19.60;34.67
32456;BME280;18912;43.270;27.942;2023-02-18T11:35:48;98149.06;;;20.05;34.41
32456;BME280;18912;43.270;27.942;2023-02-18T11:38:27;98158.66;;;20.64;33.71
32456;BME280;18912;43.270;27.942;2023-02-18T11:40:55;98145.25;;;20.78;33.59
32456;BME280;18912;43.270;27.942;2023-02-18T11:43:25;98153.69;;;20.61;33.86
32456;BME280;18912;43.270;27.942;2023-02-18T11:46:14;98137.16;;;20.41;33.80
32456;BME280;18912;43.270;27.942;2023-02-18T11:48:40;98139.16;;;20.71;33.76
32456;BME280;18912;43.270;27.942;2023-02-18T11:51:17;98134.59;;;21.16;33.67
32456;BME280;18912;43.270;27.942;2023-02-18T11:56:53;98112.16;;;20.32;34.10
32456;BME280;18912;43.270;27.942;2023-02-18T11:59:21;98125.44;;;20.71;33.55
32456;BME280;18912;43.270;27.942;2023-02-18T12:01:50;98114.69;;;20.49;34.13
32456;BME280;18912;43.270;27.942;2023-02-18T12:04:36;98098.69;;;20.31;34.06
32456;BME280;18912;43.270;27.942;2023-02-18T12:09:43;98104.03;;;20.98;33.56
32456;BME280;18912;43.270;27.942;2023-02-18T12:12:12;98097.91;;;20.40;34.21
32456;BME280;18912;43.270;27.942;2023-02-18T12:14:40;98101.28;;;20.63;33.84
32456;BME280;18912;43.270;27.942;2023-02-18T12:17:22;98095.66;;;20.22;34.51
32456;BME280;18912;43.270;27.942;2023-02-18T12:22:40;98099.94;;;20.03;34.91
32456;BME280;18912;43.270;27.942;2023-02-18T12:30:47;98093.50;;;19.78;35.33
32456;BME280;18912;43.270;27.942;2023-02-18T12:49:02;98080.13;;;19.86;35.30
32456;BME280;18912;43.270;27.942;2023-02-18T12:57:12;98075.34;;;20.18;35.37
32456;BME280;18912;43.270;27.942;2023-02-18T13:03:19;98077.69;;;19.43;36.70
32456;BME280;18912;43.270;27.942;2023-02-18T13:09:22;98082.53;;;19.78;36.14
32456;BME280;18912;43.270;27.942;2023-02-18T13:14:23;98062.72;;;19.24;37.19
32456;BME280;18912;43.270;27.942;2023-02-18T13:16:54;98067.72;;;19.32;37.31
32456;BME280;18912;43.270;27.942;2023-02-18T13:19:24;98069.59;;;18.90;37.61
32456;BME280;18912;43.270;27.942;2023-02-18T13:21:53;98072.28;;;19.21;37.63
32456;BME280;18912;43.270;27.942;2023-02-18T13:24:36;98070.78;;;19.35;37.56
32456;BME280;18912;43.270;27.942;2023-02-18T13:32:29;98058.63;;;19.68;37.05
32456;BME280;18912;43.270;27.942;2023-02-18T13:38:05;98063.38;;;18.99;38.23
32456;BME280;18912;43.270;27.942;2023-02-18T13:40:36;98055.31;;;18.88;38.54
32456;BME280;18912;43.270;27.942;2023-02-18T13:46:21;98073.25;;;19.05;38.78
32456;BME280;18912;43.270;27.942;2023-02-18T13:49:13;98057.50;;;18.86;39.07
32456;BME280;18912;43.270;27.942;2023-02-18T13:56:49;98063.31;;;18.94;39.08
32456;BME280;18912;43.270;27.942;2023-02-18T14:02:31;98067.47;;;19.02;38.76
32456;BME280;18912;43.270;27.942;2023-02-18T14:05:14;98072.19;;;18.75;39.41
32456;BME280;18912;43.270;27.942;2023-02-18T14:07:48;98067.31;;;18.82;39.03
32456;BME280;18912;43.270;27.942;2023-02-18T14:22:49;98061.31;;;18.85;39.44
32456;BME280;18912;43.270;27.942;2023-02-18T14:25:19;98058.66;;;18.95;39.14
32456;BME280;18912;43.270;27.942;2023-02-18T14:27:49;98062.28;;;18.69;39.74
32456;BME280;18912;43.270;27.942;2023-02-18T14:32:49;98055.25;;;18.51;40.04
32456;BME280;18912;43.270;27.942;2023-02-18T14:44:30;98051.09;;;18.75;40.26
32456;BME280;18912;43.270;27.942;2023-02-18T14:49:43;98044.09;;;18.31;40.71
32456;BME280;18912;43.270;27.942;2023-02-18T14:52:36;98056.25;;;18.18;40.98
32456;BME280;18912;43.270;27.942;2023-02-18T14:55:10;98049.16;;;18.17;41.18
32456;BME280;18912;43.270;27.942;2023-02-18T14:57:44;98062.38;;;18.04;41.22
32456;BME280;18912;43.270;27.942;2023-02-18T15:00:25;98068.69;;;18.04;41.58
32456;BME280;18912;43.270;27.942;2023-02-18T15:02:57;98060.13;;;18.22;41.06
32456;BME280;18912;43.270;27.942;2023-02-18T15:05:28;98056.25;;;17.70;41.53
32456;BME280;18912;43.270;27.942;2023-02-18T15:10:44;98066.53;;;17.85;41.01
32456;BME280;18912;43.270;27.942;2023-02-18T15:15:42;98073.91;;;17.46;41.80
32456;BME280;18912;43.270;27.942;2023-02-18T15:18:19;98066.50;;;17.63;41.40
32456;BME280;18912;43.270;27.942;2023-02-18T15:20:46;98066.59;;;17.68;41.45
32456;BME280;18912;43.270;27.942;2023-02-18T15:23:15;98076.22;;;17.54;41.93
32456;BME280;18912;43.270;27.942;2023-02-18T15:25:45;98066.00;;;17.28;42.27
32456;BME280;18912;43.270;27.942;2023-02-18T15:28:23;98074.56;;;17.36;42.11
32456;BME280;18912;43.270;27.942;2023-02-18T15:30:49;98074.41;;;17.43;41.98
32456;BME280;18912;43.270;27.942;2023-02-18T15:33:17;98082.47;;;17.49;41.87
32456;BME280;18912;43.270;27.942;2023-02-18T15:35:43;98072.75;;;17.04;42.52
32456;BME280;18912;43.270;27.942;2023-02-18T15:38:15;98082.91;;;17.63;41.76
32456;BME280;18912;43.270;27.942;2023-02-18T15:40:41;98085.13;;;17.28;42.14
32456;BME280;18912;43.270;27.942;2023-02-18T15:43:15;98074.19;;;17.28;42.07
32456;BME280;18912;43.270;27.942;2023-02-18T15:45:44;98084.28;;;17.27;42.39
32456;BME280;18912;43.270;27.942;2023-02-18T15:51:03;98092.59;;;16.99;42.81